sensor_id;sensor_type;location;lat;lon;timestamp;noise_LAeq;noise_LA_min;noise_LA_max;noise_LA01;noise_LA95
72805;Laerm;60920;48.748;19.142;2023-11-19T00:00:22;29.64;28.38;30.81;;
72805;Laerm;60920;48.748;19.142;2023-11-19T00:02:49;29.65;28.21;30.97;;
72805;Laerm;60920;48.748;19.142;2023-11-19T00:05:14;29.65;28.44;30.90;;
72805;Laerm;60920;48.748;19.142;2023-11-19T00:07:40;29.66;28.33;30.76;;
72805;Laerm;60920;48.748;19.142;2023-11-19T00:10:07;29.66;28.52;30.78;;
72805;Laerm;60920;48.748;19.142;2023-11-19T00:12:38;29.68;28.45;30.96;;
72805;Laerm;60920;48.748;19.142;2023-11-19T00:15:05;29.68;28.51;30.77;;
72805;Laerm;60920;48.748;19.142;2023-11-19T00:17:31;29.68;28.45;31.09;;
72805;Laerm;60920;48.748;19.142;2023-11-19T00:19:56;29.67;28.46;31.00;;
72805;Laerm;60920;48.748;19.142;2023-11-19T00:22:22;29.67;28.34;30.89;;
72805;Laerm;60920;48.748;19.142;2023-11-19T00:24:47;29.69;28.44;31.08;;
72805;Laerm;60920;48.748;19.142;2023-11-19T00:27:12;29.70;28.42;30.83;;
72805;Laerm;60920;48.748;19.142;2023-11-19T00:29:38;29.68;28.49;30.94;;
72805;Laerm;60920;48.748;19.142;2023-11-19T00:32:03;29.68;28.51;30.80;;
72805;Laerm;60920;48.748;19.142;2023-11-19T00:34:30;29.69;28.55;30.94;;
72805;Laerm;60920;48.748;19.142;2023-11-19T00:36:56;29.70;28.27;30.93;;
72805;Laerm;60920;48.748;19.142;2023-11-19T00:39:21;29.71;28.17;31.00;;
72805;Laerm;60920;48.748;19.142;2023-11-19T00:41:46;29.71;28.40;30.74;;
72805;Laerm;60920;48.748;19.142;2023-11-19T00:44:11;29.72;28.31;30.95;;
72805;Laerm;60920;48.748;19.142;2023-11-19T00:46:37;29.73;28.38;31.08;;
72805;Laerm;60920;48.748;19.142;2023-11-19T00:49:02;29.70;28.44;31.02;;
72805;Laerm;60920;48.748;19.142;2023-11-19T00:51:28;29.70;28.35;30.84;;
72805;Laerm;60920;48.748;19.142;2023-11-19T00:53:53;29.73;28.55;31.00;;
72805;Laerm;60920;48.748;19.142;2023-11-19T00:56:18;29.73;28.46;30.83;;
72805;Laerm;60920;48.748;19.142;2023-11-19T00:58:44;29.75;28.26;30.88;;
72805;Laerm;60920;48.748;19.142;2023-11-19T01:01:11;29.74;28.40;30.83;;
72805;Laerm;60920;48.748;19.142;2023-11-19T01:03:36;29.75;28.29;30.95;;
72805;Laerm;60920;48.748;19.142;2023-11-19T01:06:02;29.75;28.27;31.11;;
72805;Laerm;60920;48.748;19.142;2023-11-19T01:08:27;29.76;28.51;31.12;;
72805;Laerm;60920;48.748;19.142;2023-11-19T01:10:53;29.78;28.46;32.21;;
72805;Laerm;60920;48.748;19.142;2023-11-19T01:13:18;29.73;28.27;30.83;;
72805;Laerm;60920;48.748;19.142;2023-11-19T01:15:43;29.76;28.48;30.85;;
72805;Laerm;60920;48.748;19.142;2023-11-19T01:18:09;29.75;28.56;31.00;;
72805;Laerm;60920;48.748;19.142;2023-11-19T01:20:34;29.76;28.36;30.94;;
72805;Laerm;60920;48.748;19.142;2023-11-19T01:23:00;29.76;28.44;30.89;;
72805;Laerm;60920;48.748;19.142;2023-11-19T01:25:25;29.74;28.39;30.79;;
72805;Laerm;60920;48.748;19.142;2023-11-19T01:27:50;29.76;28.23;30.96;;
72805;Laerm;60920;48.748;19.142;2023-11-19T01:30:15;29.77;28.47;30.99;;
72805;Laerm;60920;48.748;19.142;2023-11-19T01:32:41;29.75;28.47;30.90;;
72805;Laerm;60920;48.748;19.142;2023-11-19T01:35:06;29.75;28.41;30.83;;
72805;Laerm;60920;48.748;19.142;2023-11-19T01:37:33;29.73;28.47;30.78;;
72805;Laerm;60920;48.748;19.142;2023-11-19T01:39:59;29.75;28.45;30.92;;
72805;Laerm;60920;48.748;19.142;2023-11-19T01:42:25;29.75;28.51;30.99;;
72805;Laerm;60920;48.748;19.142;2023-11-19T01:44:57;29.79;28.37;31.00;;
72805;Laerm;60920;48.748;19.142;2023-11-19T01:47:23;29.79;28.56;31.01;;
72805;Laerm;60920;48.748;19.142;2023-11-19T01:49:49;29.79;28.63;31.07;;
72805;Laerm;60920;48.748;19.142;2023-11-19T01:52:15;29.79;28.27;30.94;;
72805;Laerm;60920;48.748;19.142;2023-11-19T01:54:41;29.77;28.42;30.90;;
72805;Laerm;60920;48.748;19.142;2023-11-19T01:57:06;29.77;28.45;30.98;;
72805;Laerm;60920;48.748;19.142;2023-11-19T01:59:32;29.80;28.57;30.89;;
72805;Laerm;60920;48.748;19.142;2023-11-19T02:01:57;29.81;28.55;31.16;;
72805;Laerm;60920;48.748;19.142;2023-11-19T02:04:23;29.79;28.51;30.93;;
72805;Laerm;60920;48.748;19.142;2023-11-19T02:06:48;29.81;28.58;30.97;;
72805;Laerm;60920;48.748;19.142;2023-11-19T02:09:14;29.80;28.42;30.94;;
72805;Laerm;60920;48.748;19.142;2023-11-19T02:11:44;29.80;28.35;31.08;;
72805;Laerm;60920;48.748;19.142;2023-11-19T02:14:10;29.79;28.48;31.15;;
72805;Laerm;60920;48.748;19.142;2023-11-19T02:16:36;29.79;28.59;31.02;;
72805;Laerm;60920;48.748;19.142;2023-11-19T02:19:01;29.78;28.51;30.94;;
72805;Laerm;60920;48.748;19.142;2023-11-19T02:21:27;29.79;28.58;30.92;;
72805;Laerm;60920;48.748;19.142;2023-11-19T02:23:52;29.81;28.38;31.35;;
72805;Laerm;60920;48.748;19.142;2023-11-19T02:28:53;29.78;28.46;31.05;;
72805;Laerm;60920;48.748;19.142;2023-11-19T02:31:18;29.77;28.53;30.90;;
72805;Laerm;60920;48.748;19.142;2023-11-19T02:33:45;29.79;28.36;30.93;;
72805;Laerm;60920;48.748;19.142;2023-11-19T02:36:10;29.78;28.47;30.99;;
72805;Laerm;60920;48.748;19.142;2023-11-19T02:38:36;29.79;28.59;30.91;;
72805;Laerm;60920;48.748;19.142;2023-11-19T02:41:03;29.80;28.32;31.31;;
72805;Laerm;60920;48.748;19.142;2023-11-19T02:43:30;29.84;28.56;31.05;;
72805;Laerm;60920;48.748;19.142;2023-11-19T02:46:01;29.87;28.61;31.44;;
72805;Laerm;60920;48.748;19.142;2023-11-19T02:48:27;29.87;28.50;31.03;;
72805;Laerm;60920;48.748;19.142;2023-11-19T02:50:52;29.87;28.51;30.94;;
72805;Laerm;60920;48.748;19.142;2023-11-19T02:53:17;29.86;28.50;31.21;;
72805;Laerm;60920;48.748;19.142;2023-11-19T02:55:43;29.90;28.66;31.16;;
72805;Laerm;60920;48.748;19.142;2023-11-19T02:58:13;29.87;28.61;31.05;;
72805;Laerm;60920;48.748;19.142;2023-11-19T03:00:45;29.87;28.62;31.32;;
72805;Laerm;60920;48.748;19.142;2023-11-19T03:03:17;29.85;28.63;30.97;;
72805;Laerm;60920;48.748;19.142;2023-11-19T03:05:45;29.85;28.59;31.08;;
72805;Laerm;60920;48.748;19.142;2023-11-19T03:08:11;29.90;28.65;31.17;;
72805;Laerm;60920;48.748;19.142;2023-11-19T03:10:37;29.89;28.68;31.16;;
72805;Laerm;60920;48.748;19.142;2023-11-19T03:13:02;29.86;28.64;31.04;;
72805;Laerm;60920;48.748;19.142;2023-11-19T03:15:28;29.84;28.56;31.38;;
72805;Laerm;60920;48.748;19.142;2023-11-19T03:17:53;29.84;28.60;30.93;;
72805;Laerm;60920;48.748;19.142;2023-11-19T03:20:19;29.81;28.58;31.19;;
72805;Laerm;60920;48.748;19.142;2023-11-19T03:22:46;29.87;28.64;31.06;;
72805;Laerm;60920;48.748;19.142;2023-11-19T03:25:11;29.88;28.52;31.05;;
72805;Laerm;60920;48.748;19.142;2023-11-19T03:27:39;29.83;28.61;31.02;;
72805;Laerm;60920;48.748;19.142;2023-11-19T03:30:07;29.81;28.53;30.99;;
72805;Laerm;60920;48.748;19.142;2023-11-19T03:32:32;29.81;28.61;31.00;;
72805;Laerm;60920;48.748;19.142;2023-11-19T03:34:59;29.82;28.54;31.04;;
72805;Laerm;60920;48.748;19.142;2023-11-19T03:37:26;29.83;28.33;30.92;;
72805;Laerm;60920;48.748;19.142;2023-11-19T03:39:51;29.82;28.47;30.99;;
72805;Laerm;60920;48.748;19.142;2023-11-19T03:42:18;29.82;28.28;31.28;;
72805;Laerm;60920;48.748;19.142;2023-11-19T03:44:44;29.82;28.43;30.90;;
72805;Laerm;60920;48.748;19.142;2023-11-19T03:47:09;29.85;28.66;30.99;;
72805;Laerm;60920;48.748;19.142;2023-11-19T03:49:35;29.87;28.53;30.96;;
72805;Laerm;60920;48.748;19.142;2023-11-19T03:52:00;29.87;28.66;31.09;;
72805;Laerm;60920;48.748;19.142;2023-11-19T03:54:26;29.91;28.60;31.13;;
72805;Laerm;60920;48.748;19.142;2023-11-19T03:56:52;29.90;28.52;31.16;;
72805;Laerm;60920;48.748;19.142;2023-11-19T03:59:18;29.91;28.70;31.16;;
72805;Laerm;60920;48.748;19.142;2023-11-19T04:01:45;29.90;28.71;31.15;;
72805;Laerm;60920;48.748;19.142;2023-11-19T04:04:11;29.90;28.70;30.99;;
72805;Laerm;60920;48.748;19.142;2023-11-19T04:06:36;29.89;28.37;31.17;;
72805;Laerm;60920;48.748;19.142;2023-11-19T04:09:01;29.88;28.37;31.18;;
72805;Laerm;60920;48.748;19.142;2023-11-19T04:11:27;29.91;28.76;31.04;;
72805;Laerm;60920;48.748;19.142;2023-11-19T04:13:52;29.93;28.78;31.16;;
72805;Laerm;60920;48.748;19.142;2023-11-19T04:16:18;29.94;28.62;31.12;;
72805;Laerm;60920;48.748;19.142;2023-11-19T04:18:43;29.93;28.62;31.30;;
72805;Laerm;60920;48.748;19.142;2023-11-19T04:21:08;29.91;28.42;31.03;;
72805;Laerm;60920;48.748;19.142;2023-11-19T04:23:33;29.96;28.55;31.55;;
72805;Laerm;60920;48.748;19.142;2023-11-19T04:26:01;30.01;28.75;31.34;;
72805;Laerm;60920;48.748;19.142;2023-11-19T04:28:27;29.97;28.62;31.19;;
72805;Laerm;60920;48.748;19.142;2023-11-19T04:30:52;29.97;28.55;31.14;;
72805;Laerm;60920;48.748;19.142;2023-11-19T04:33:17;29.99;28.59;31.07;;
72805;Laerm;60920;48.748;19.142;2023-11-19T04:35:42;29.98;28.65;31.18;;
72805;Laerm;60920;48.748;19.142;2023-11-19T04:38:08;29.97;28.65;31.35;;
72805;Laerm;60920;48.748;19.142;2023-11-19T04:40:33;29.95;28.61;31.32;;
72805;Laerm;60920;48.748;19.142;2023-11-19T04:42:59;29.94;28.68;31.41;;
72805;Laerm;60920;48.748;19.142;2023-11-19T04:45:24;29.95;28.47;31.22;;
72805;Laerm;60920;48.748;19.142;2023-11-19T04:47:49;29.98;28.65;31.16;;
72805;Laerm;60920;48.748;19.142;2023-11-19T04:50:14;29.96;28.81;31.07;;
72805;Laerm;60920;48.748;19.142;2023-11-19T04:52:40;29.95;28.61;31.18;;
72805;Laerm;60920;48.748;19.142;2023-11-19T04:55:05;29.96;28.79;31.22;;
72805;Laerm;60920;48.748;19.142;2023-11-19T04:57:30;29.96;28.79;31.19;;
72805;Laerm;60920;48.748;19.142;2023-11-19T04:59:57;29.97;28.43;31.18;;
72805;Laerm;60920;48.748;19.142;2023-11-19T05:02:23;29.92;28.57;31.11;;
72805;Laerm;60920;48.748;19.142;2023-11-19T05:04:48;29.95;28.56;31.27;;
72805;Laerm;60920;48.748;19.142;2023-11-19T05:07:14;29.94;28.44;31.33;;
72805;Laerm;60920;48.748;19.142;2023-11-19T05:09:39;29.95;28.53;31.12;;
72805;Laerm;60920;48.748;19.142;2023-11-19T05:12:05;29.90;28.49;31.40;;
72805;Laerm;60920;48.748;19.142;2023-11-19T05:14:30;29.85;28.57;30.96;;
72805;Laerm;60920;48.748;19.142;2023-11-19T05:16:55;29.86;28.34;31.01;;
72805;Laerm;60920;48.748;19.142;2023-11-19T05:19:21;29.90;28.56;30.96;;
72805;Laerm;60920;48.748;19.142;2023-11-19T05:21:46;29.84;28.57;31.31;;
72805;Laerm;60920;48.748;19.142;2023-11-19T05:24:12;29.83;28.38;31.21;;
72805;Laerm;60920;48.748;19.142;2023-11-19T05:26:37;29.85;28.45;31.17;;
72805;Laerm;60920;48.748;19.142;2023-11-19T05:29:03;29.87;28.53;31.19;;
72805;Laerm;60920;48.748;19.142;2023-11-19T05:31:28;29.88;28.38;31.24;;
72805;Laerm;60920;48.748;19.142;2023-11-19T05:33:53;29.86;28.38;31.04;;
72805;Laerm;60920;48.748;19.142;2023-11-19T05:36:18;29.81;28.48;30.95;;
72805;Laerm;60920;48.748;19.142;2023-11-19T05:38:44;29.86;28.47;31.04;;
72805;Laerm;60920;48.748;19.142;2023-11-19T05:41:09;29.84;28.41;31.22;;
72805;Laerm;60920;48.748;19.142;2023-11-19T05:43:35;29.85;28.43;31.25;;
72805;Laerm;60920;48.748;19.142;2023-11-19T05:46:00;29.87;28.44;31.25;;
72805;Laerm;60920;48.748;19.142;2023-11-19T05:48:26;29.87;28.75;31.05;;
72805;Laerm;60920;48.748;19.142;2023-11-19T05:50:52;29.89;28.42;31.07;;
72805;Laerm;60920;48.748;19.142;2023-11-19T05:53:18;29.88;28.37;31.19;;
72805;Laerm;60920;48.748;19.142;2023-11-19T05:55:44;29.89;28.66;31.10;;
72805;Laerm;60920;48.748;19.142;2023-11-19T05:58:19;29.91;28.67;31.03;;
72805;Laerm;60920;48.748;19.142;2023-11-19T06:00:46;29.93;28.67;31.32;;
72805;Laerm;60920;48.748;19.142;2023-11-19T06:03:12;29.96;28.84;31.66;;
72805;Laerm;60920;48.748;19.142;2023-11-19T06:05:37;29.92;28.81;31.37;;
72805;Laerm;60920;48.748;19.142;2023-11-19T06:08:02;29.87;28.60;31.03;;
72805;Laerm;60920;48.748;19.142;2023-11-19T06:10:28;29.87;28.67;31.22;;
72805;Laerm;60920;48.748;19.142;2023-11-19T06:12:59;29.87;28.52;31.05;;
72805;Laerm;60920;48.748;19.142;2023-11-19T06:15:25;29.89;28.70;31.11;;
72805;Laerm;60920;48.748;19.142;2023-11-19T06:17:51;29.92;28.48;31.20;;
72805;Laerm;60920;48.748;19.142;2023-11-19T06:20:17;29.88;28.42;31.15;;
72805;Laerm;60920;48.748;19.142;2023-11-19T06:22:43;29.88;28.65;31.01;;
72805;Laerm;60920;48.748;19.142;2023-11-19T06:25:10;29.86;28.66;31.10;;
72805;Laerm;60920;48.748;19.142;2023-11-19T06:27:36;29.87;28.18;31.15;;
72805;Laerm;60920;48.748;19.142;2023-11-19T06:30:01;29.86;28.61;31.25;;
72805;Laerm;60920;48.748;19.142;2023-11-19T06:32:27;29.87;28.13;31.13;;
72805;Laerm;60920;48.748;19.142;2023-11-19T06:34:53;29.86;28.62;31.24;;
72805;Laerm;60920;48.748;19.142;2023-11-19T06:37:18;29.83;28.59;31.12;;
72805;Laerm;60920;48.748;19.142;2023-11-19T06:39:44;29.81;28.55;31.07;;
72805;Laerm;60920;48.748;19.142;2023-11-19T06:42:09;29.77;28.48;30.89;;
72805;Laerm;60920;48.748;19.142;2023-11-19T06:44:35;29.76;28.41;30.94;;
72805;Laerm;60920;48.748;19.142;2023-11-19T06:47:00;29.74;28.50;30.93;;
72805;Laerm;60920;48.748;19.142;2023-11-19T06:49:25;29.74;28.46;30.88;;
72805;Laerm;60920;48.748;19.142;2023-11-19T06:51:50;29.75;28.42;30.99;;
72805;Laerm;60920;48.748;19.142;2023-11-19T06:54:16;29.72;28.33;31.30;;
72805;Laerm;60920;48.748;19.142;2023-11-19T06:56:41;29.74;28.35;31.01;;
72805;Laerm;60920;48.748;19.142;2023-11-19T06:59:06;29.74;28.47;30.91;;
72805;Laerm;60920;48.748;19.142;2023-11-19T07:01:35;29.75;28.26;30.92;;
72805;Laerm;60920;48.748;19.142;2023-11-19T07:04:01;29.74;28.43;30.88;;
72805;Laerm;60920;48.748;19.142;2023-11-19T07:06:33;29.77;28.52;30.80;;
72805;Laerm;60920;48.748;19.142;2023-11-19T07:08:58;29.81;28.52;31.22;;
72805;Laerm;60920;48.748;19.142;2023-11-19T07:11:23;29.82;28.57;30.95;;
72805;Laerm;60920;48.748;19.142;2023-11-19T07:13:48;29.85;28.54;31.15;;
72805;Laerm;60920;48.748;19.142;2023-11-19T07:16:14;29.89;28.70;31.17;;
72805;Laerm;60920;48.748;19.142;2023-11-19T07:18:39;29.91;28.62;31.33;;
72805;Laerm;60920;48.748;19.142;2023-11-19T07:21:05;29.96;28.82;31.17;;
72805;Laerm;60920;48.748;19.142;2023-11-19T07:23:30;30.01;28.76;31.14;;
72805;Laerm;60920;48.748;19.142;2023-11-19T07:25:56;29.95;28.72;31.13;;
72805;Laerm;60920;48.748;19.142;2023-11-19T07:28:21;29.94;28.64;31.17;;
72805;Laerm;60920;48.748;19.142;2023-11-19T07:30:47;29.92;28.52;31.31;;
72805;Laerm;60920;48.748;19.142;2023-11-19T07:33:12;29.93;28.73;31.25;;
72805;Laerm;60920;48.748;19.142;2023-11-19T07:35:38;29.98;28.79;31.04;;
72805;Laerm;60920;48.748;19.142;2023-11-19T07:38:04;30.05;28.80;31.36;;
72805;Laerm;60920;48.748;19.142;2023-11-19T07:40:30;30.11;28.88;31.24;;
72805;Laerm;60920;48.748;19.142;2023-11-19T07:42:55;30.13;28.82;31.21;;
72805;Laerm;60920;48.748;19.142;2023-11-19T07:45:20;30.18;28.84;31.39;;
72805;Laerm;60920;48.748;19.142;2023-11-19T07:47:46;30.18;29.09;31.52;;
72805;Laerm;60920;48.748;19.142;2023-11-19T07:50:11;30.24;29.01;31.48;;
72805;Laerm;60920;48.748;19.142;2023-11-19T07:52:39;30.34;29.07;31.58;;
72805;Laerm;60920;48.748;19.142;2023-11-19T07:55:04;30.42;29.22;31.75;;
72805;Laerm;60920;48.748;19.142;2023-11-19T07:57:30;30.44;29.32;31.64;;
72805;Laerm;60920;48.748;19.142;2023-11-19T07:59:56;30.58;29.30;31.84;;
72805;Laerm;60920;48.748;19.142;2023-11-19T08:02:22;30.57;29.24;31.74;;
72805;Laerm;60920;48.748;19.142;2023-11-19T08:04:48;30.59;29.35;31.71;;
72805;Laerm;60920;48.748;19.142;2023-11-19T08:07:16;30.63;29.33;31.82;;
72805;Laerm;60920;48.748;19.142;2023-11-19T08:09:41;30.62;29.45;31.67;;
72805;Laerm;60920;48.748;19.142;2023-11-19T08:12:07;30.61;29.21;31.92;;
72805;Laerm;60920;48.748;19.142;2023-11-19T08:14:33;30.64;29.35;31.95;;
72805;Laerm;60920;48.748;19.142;2023-11-19T08:16:58;30.79;29.55;31.83;;
72805;Laerm;60920;48.748;19.142;2023-11-19T08:19:24;31.01;29.86;32.22;;
72805;Laerm;60920;48.748;19.142;2023-11-19T08:21:49;30.97;29.81;32.15;;
72805;Laerm;60920;48.748;19.142;2023-11-19T08:24:14;31.02;29.66;32.12;;
72805;Laerm;60920;48.748;19.142;2023-11-19T08:26:39;30.99;29.63;32.19;;
72805;Laerm;60920;48.748;19.142;2023-11-19T08:29:05;31.03;29.50;33.08;;
72805;Laerm;60920;48.748;19.142;2023-11-19T08:31:30;31.21;29.87;34.72;;
72805;Laerm;60920;48.748;19.142;2023-11-19T08:33:56;31.26;30.13;32.48;;
72805;Laerm;60920;48.748;19.142;2023-11-19T08:36:21;31.41;30.13;35.27;;
72805;Laerm;60920;48.748;19.142;2023-11-19T08:38:46;31.49;30.23;32.75;;
72805;Laerm;60920;48.748;19.142;2023-11-19T08:41:13;31.45;30.10;32.83;;
72805;Laerm;60920;48.748;19.142;2023-11-19T08:43:38;31.51;30.31;32.71;;
72805;Laerm;60920;48.748;19.142;2023-11-19T08:46:04;31.49;30.19;32.65;;
72805;Laerm;60920;48.748;19.142;2023-11-19T08:48:34;31.52;30.27;32.84;;
72805;Laerm;60920;48.748;19.142;2023-11-19T08:50:59;31.49;30.16;32.78;;
72805;Laerm;60920;48.748;19.142;2023-11-19T08:53:24;31.51;30.31;32.75;;
72805;Laerm;60920;48.748;19.142;2023-11-19T08:55:50;31.54;30.21;32.68;;
72805;Laerm;60920;48.748;19.142;2023-11-19T08:58:15;31.51;30.22;32.82;;
72805;Laerm;60920;48.748;19.142;2023-11-19T09:00:40;31.46;30.15;32.64;;
72805;Laerm;60920;48.748;19.142;2023-11-19T09:03:06;31.49;30.22;32.64;;
72805;Laerm;60920;48.748;19.142;2023-11-19T09:05:32;31.45;30.26;32.86;;
72805;Laerm;60920;48.748;19.142;2023-11-19T09:07:57;31.42;30.15;33.07;;
72805;Laerm;60920;48.748;19.142;2023-11-19T09:10:22;31.29;29.94;34.67;;
72805;Laerm;60920;48.748;19.142;2023-11-19T09:12:47;31.25;29.85;32.33;;
72805;Laerm;60920;48.748;19.142;2023-11-19T09:15:13;31.32;30.12;32.47;;
72805;Laerm;60920;48.748;19.142;2023-11-19T09:17:38;31.41;30.17;32.53;;
72805;Laerm;60920;48.748;19.142;2023-11-19T09:20:04;31.43;30.04;32.62;;
72805;Laerm;60920;48.748;19.142;2023-11-19T09:22:29;31.44;30.18;32.69;;
72805;Laerm;60920;48.748;19.142;2023-11-19T09:24:55;31.36;30.08;32.43;;
72805;Laerm;60920;48.748;19.142;2023-11-19T09:27:20;31.40;30.10;32.77;;
72805;Laerm;60920;48.748;19.142;2023-11-19T09:29:45;31.43;30.17;32.65;;
72805;Laerm;60920;48.748;19.142;2023-11-19T09:32:12;31.44;30.27;32.69;;
72805;Laerm;60920;48.748;19.142;2023-11-19T09:34:37;31.45;30.19;32.58;;
72805;Laerm;60920;48.748;19.142;2023-11-19T09:37:02;31.49;30.29;32.77;;
72805;Laerm;60920;48.748;19.142;2023-11-19T09:39:28;31.52;29.89;32.76;;
72805;Laerm;60920;48.748;19.142;2023-11-19T09:41:54;31.56;30.20;32.95;;
72805;Laerm;60920;48.748;19.142;2023-11-19T09:44:19;31.56;29.97;32.82;;
72805;Laerm;60920;48.748;19.142;2023-11-19T09:46:44;31.58;29.70;32.89;;
72805;Laerm;60920;48.748;19.142;2023-11-19T09:49:11;31.57;30.28;32.75;;
72805;Laerm;60920;48.748;19.142;2023-11-19T09:51:36;31.58;30.17;32.88;;
72805;Laerm;60920;48.748;19.142;2023-11-19T09:54:03;31.59;30.25;32.74;;
72805;Laerm;60920;48.748;19.142;2023-11-19T09:56:29;31.58;30.09;35.40;;
72805;Laerm;60920;48.748;19.142;2023-11-19T09:58:55;31.54;30.18;33.30;;
72805;Laerm;60920;48.748;19.142;2023-11-19T10:01:20;31.57;30.39;32.77;;
72805;Laerm;60920;48.748;19.142;2023-11-19T10:03:46;31.58;30.34;32.76;;
72805;Laerm;60920;48.748;19.142;2023-11-19T10:06:12;31.59;30.40;33.01;;
72805;Laerm;60920;48.748;19.142;2023-11-19T10:08:37;31.60;29.88;32.93;;
72805;Laerm;60920;48.748;19.142;2023-11-19T10:11:05;31.59;30.21;32.68;;
72805;Laerm;60920;48.748;19.142;2023-11-19T10:13:30;31.60;30.42;32.74;;
72805;Laerm;60920;48.748;19.142;2023-11-19T10:15:55;31.60;30.06;32.75;;
72805;Laerm;60920;48.748;19.142;2023-11-19T10:18:25;31.61;30.41;32.86;;
72805;Laerm;60920;48.748;19.142;2023-11-19T10:20:50;31.60;30.25;32.82;;
72805;Laerm;60920;48.748;19.142;2023-11-19T10:23:16;31.61;30.27;32.97;;
72805;Laerm;60920;48.748;19.142;2023-11-19T10:25:41;31.59;30.33;32.73;;
72805;Laerm;60920;48.748;19.142;2023-11-19T10:28:06;31.49;30.18;32.81;;
72805;Laerm;60920;48.748;19.142;2023-11-19T10:30:32;31.39;29.98;33.02;;
72805;Laerm;60920;48.748;19.142;2023-11-19T10:33:02;31.39;30.10;32.61;;
72805;Laerm;60920;48.748;19.142;2023-11-19T10:35:27;31.34;29.93;32.53;;
72805;Laerm;60920;48.748;19.142;2023-11-19T10:37:53;31.22;29.73;32.43;;
72805;Laerm;60920;48.748;19.142;2023-11-19T10:40:18;31.06;29.60;32.16;;
72805;Laerm;60920;48.748;19.142;2023-11-19T10:42:43;30.96;29.70;32.34;;
72805;Laerm;60920;48.748;19.142;2023-11-19T10:45:22;30.85;29.72;32.19;;
72805;Laerm;60920;48.748;19.142;2023-11-19T10:47:48;30.74;29.52;31.97;;
72805;Laerm;60920;48.748;19.142;2023-11-19T10:50:14;30.68;29.47;31.80;;
72805;Laerm;60920;48.748;19.142;2023-11-19T10:52:40;30.58;29.41;31.79;;
72805;Laerm;60920;48.748;19.142;2023-11-19T10:55:05;30.43;29.20;31.64;;
72805;Laerm;60920;48.748;19.142;2023-11-19T10:57:33;30.29;28.87;31.71;;
72805;Laerm;60920;48.748;19.142;2023-11-19T11:00:02;30.12;28.79;31.46;;
72805;Laerm;60920;48.748;19.142;2023-11-19T11:02:29;29.96;28.68;31.31;;
72805;Laerm;60920;48.748;19.142;2023-11-19T11:04:55;29.85;28.62;31.06;;
72805;Laerm;60920;48.748;19.142;2023-11-19T11:07:21;29.85;28.49;31.11;;
72805;Laerm;60920;48.748;19.142;2023-11-19T11:09:50;29.86;28.36;31.01;;
72805;Laerm;60920;48.748;19.142;2023-11-19T11:12:16;29.84;28.47;31.12;;
72805;Laerm;60920;48.748;19.142;2023-11-19T11:14:42;29.82;28.41;31.03;;
72805;Laerm;60920;48.748;19.142;2023-11-19T11:17:09;29.86;28.56;31.09;;
72805;Laerm;60920;48.748;19.142;2023-11-19T11:19:36;29.80;28.62;30.94;;
72805;Laerm;60920;48.748;19.142;2023-11-19T11:22:02;29.80;28.44;31.01;;
72805;Laerm;60920;48.748;19.142;2023-11-19T11:24:41;29.83;28.65;31.12;;
72805;Laerm;60920;48.748;19.142;2023-11-19T11:37:18;29.81;28.48;31.14;;
72805;Laerm;60920;48.748;19.142;2023-11-19T11:39:45;29.82;28.46;31.70;;
72805;Laerm;60920;48.748;19.142;2023-11-19T11:44:57;29.90;28.33;31.31;;
72805;Laerm;60920;48.748;19.142;2023-11-19T11:47:23;29.93;28.58;33.92;;
72805;Laerm;60920;48.748;19.142;2023-11-19T11:49:48;29.86;28.51;31.27;;
72805;Laerm;60920;48.748;19.142;2023-11-19T11:52:16;29.87;28.57;35.05;;
72805;Laerm;60920;48.748;19.142;2023-11-19T11:54:42;29.94;28.77;31.19;;
72805;Laerm;60920;48.748;19.142;2023-11-19T11:57:08;29.92;28.58;31.10;;
72805;Laerm;60920;48.748;19.142;2023-11-19T11:59:42;29.94;28.76;31.24;;
72805;Laerm;60920;48.748;19.142;2023-11-19T12:02:08;29.96;28.78;31.36;;
72805;Laerm;60920;48.748;19.142;2023-11-19T12:04:37;29.99;28.73;32.85;;
72805;Laerm;60920;48.748;19.142;2023-11-19T12:07:06;30.00;28.75;31.37;;
72805;Laerm;60920;48.748;19.142;2023-11-19T12:09:32;30.16;28.85;31.57;;
72805;Laerm;60920;48.748;19.142;2023-11-19T12:12:07;30.21;28.65;31.37;;
72805;Laerm;60920;48.748;19.142;2023-11-19T12:19:58;30.07;28.76;31.30;;
72805;Laerm;60920;48.748;19.142;2023-11-19T12:22:24;30.18;29.01;31.78;;
72805;Laerm;60920;48.748;19.142;2023-11-19T12:24:50;30.11;28.67;31.29;;
72805;Laerm;60920;48.748;19.142;2023-11-19T12:27:16;30.11;28.66;31.18;;
72805;Laerm;60920;48.748;19.142;2023-11-19T12:29:43;30.14;28.74;31.67;;
72805;Laerm;60920;48.748;19.142;2023-11-19T12:32:11;30.11;28.71;31.43;;
72805;Laerm;60920;48.748;19.142;2023-11-19T12:34:36;30.13;28.61;31.34;;
72805;Laerm;60920;48.748;19.142;2023-11-19T12:37:05;30.12;28.86;31.36;;
72805;Laerm;60920;48.748;19.142;2023-11-19T12:39:30;30.13;28.80;31.32;;
72805;Laerm;60920;48.748;19.142;2023-11-19T12:41:56;30.09;28.92;31.39;;
72805;Laerm;60920;48.748;19.142;2023-11-19T12:44:24;30.05;28.68;31.60;;
72805;Laerm;60920;48.748;19.142;2023-11-19T12:47:05;29.99;28.82;31.32;;
72805;Laerm;60920;48.748;19.142;2023-11-19T12:49:37;29.96;28.83;31.24;;
72805;Laerm;60920;48.748;19.142;2023-11-19T12:52:11;29.98;28.73;31.15;;
72805;Laerm;60920;48.748;19.142;2023-11-19T12:54:36;29.98;28.68;31.39;;
72805;Laerm;60920;48.748;19.142;2023-11-19T12:57:02;29.98;28.67;31.22;;
72805;Laerm;60920;48.748;19.142;2023-11-19T12:59:28;29.98;28.53;31.26;;
72805;Laerm;60920;48.748;19.142;2023-11-19T13:01:59;30.01;28.59;31.28;;
72805;Laerm;60920;48.748;19.142;2023-11-19T13:04:28;30.01;28.77;31.50;;
72805;Laerm;60920;48.748;19.142;2023-11-19T13:06:56;29.98;28.68;31.20;;
72805;Laerm;60920;48.748;19.142;2023-11-19T13:09:25;29.97;28.78;31.23;;
72805;Laerm;60920;48.748;19.142;2023-11-19T13:11:50;29.93;28.59;31.08;;
72805;Laerm;60920;48.748;19.142;2023-11-19T13:14:17;29.92;28.41;31.07;;
72805;Laerm;60920;48.748;19.142;2023-11-19T13:16:42;30.00;28.84;31.09;;
72805;Laerm;60920;48.748;19.142;2023-11-19T13:19:08;30.02;28.82;31.27;;
72805;Laerm;60920;48.748;19.142;2023-11-19T13:21:37;30.03;28.56;31.32;;
72805;Laerm;60920;48.748;19.142;2023-11-19T13:24:03;30.04;28.72;31.22;;
72805;Laerm;60920;48.748;19.142;2023-11-19T13:26:28;30.00;28.64;31.24;;
72805;Laerm;60920;48.748;19.142;2023-11-19T13:28:53;30.00;28.43;31.56;;
72805;Laerm;60920;48.748;19.142;2023-11-19T13:31:19;30.01;28.59;31.15;;
72805;Laerm;60920;48.748;19.142;2023-11-19T13:33:44;30.03;28.66;31.30;;
72805;Laerm;60920;48.748;19.142;2023-11-19T13:36:09;30.01;28.69;31.78;;
72805;Laerm;60920;48.748;19.142;2023-11-19T13:38:35;29.96;28.68;31.18;;
72805;Laerm;60920;48.748;19.142;2023-11-19T13:41:04;29.97;28.70;31.27;;
72805;Laerm;60920;48.748;19.142;2023-11-19T13:43:29;30.05;28.73;31.37;;
72805;Laerm;60920;48.748;19.142;2023-11-19T13:45:55;30.01;28.72;31.23;;